createdAt,value
2018-07-19T00:01:30.446Z,68.98
2018-07-19T00:03:59.120Z,69.18
2018-07-19T00:06:27.924Z,69.80
2018-07-19T00:08:56.598Z,69.50
2018-07-19T00:11:25.247Z,70.18
2018-07-19T00:13:53.897Z,69.44
2018-07-19T00:16:22.621Z,70.04
2018-07-19T00:18:51.279Z,69.64
2018-07-19T00:21:19.896Z,70.39
2018-07-19T00:23:48.692Z,72.03
2018-07-19T00:26:17.345Z,72.87
2018-07-19T00:28:45.972Z,72.87
2018-07-19T00:31:14.599Z,72.88
2018-07-19T00:33:43.273Z,72.06
2018-07-19T00:36:11.932Z,70.98
2018-07-19T00:38:40.689Z,70.89
2018-07-19T00:41:09.578Z,71.16
2018-07-19T00:43:38.358Z,71.82
2018-07-19T00:46:07.241Z,71.05
2018-07-19T00:48:36.029Z,72.52
2018-07-19T00:51:04.745Z,71.46
2018-07-19T00:53:33.469Z,70.56
2018-07-19T00:56:02.134Z,70.87
2018-07-19T00:58:31.065Z,70.23
2018-07-19T01:00:59.699Z,70.26
2018-07-19T01:03:28.379Z,70.07
2018-07-19T01:05:57.025Z,69.71
2018-07-19T01:08:25.707Z,69.66
2018-07-19T01:10:54.332Z,70.07
2018-07-19T01:13:23.013Z,69.82
2018-07-19T01:15:51.678Z,69.60
2018-07-19T01:18:20.290Z,69.64
2018-07-19T01:20:48.939Z,69.71
2018-07-19T01:23:17.799Z,69.55
2018-07-19T01:25:46.443Z,69.75
2018-07-19T01:28:15.136Z,69.81
2018-07-19T01:30:43.803Z,69.47
2018-07-19T01:33:12.492Z,69.16
2018-07-19T01:35:41.148Z,69.60
2018-07-19T01:38:09.868Z,69.33
2018-07-19T01:40:38.552Z,69.03
2018-07-19T01:43:07.340Z,69.06
2018-07-19T01:45:35.940Z,69.04
2018-07-19T01:48:04.560Z,69.46
2018-07-19T01:50:33.172Z,69.65
2018-07-19T01:53:01.784Z,69.44
2018-07-19T01:55:30.640Z,69.74
2018-07-19T01:57:59.256Z,69.46
2018-07-19T02:00:27.875Z,69.81
2018-07-19T02:02:56.598Z,70.10
2018-07-19T02:05:25.333Z,69.67
2018-07-19T02:07:54.044Z,69.73
2018-07-19T02:10:22.885Z,70.68
2018-07-19T02:12:51.544Z,69.95
2018-07-19T02:15:20.179Z,70.39
2018-07-19T02:17:48.979Z,71.86
2018-07-19T02:20:17.673Z,71.34
2018-07-19T02:22:46.276Z,71.30
2018-07-19T02:25:14.917Z,71.22
2018-07-19T02:27:43.547Z,70.18
2018-07-19T02:30:12.518Z,69.69
2018-07-19T02:32:41.106Z,69.43
2018-07-19T02:35:09.926Z,69.81
2018-07-19T02:37:38.631Z,69.96
2018-07-19T02:40:07.252Z,69.51
2018-07-19T02:42:35.895Z,68.98
2018-07-19T02:45:04.604Z,69.09
2018-07-19T02:47:33.278Z,68.93
2018-07-19T02:50:01.903Z,68.68
2018-07-19T02:52:30.574Z,68.73
2018-07-19T02:54:59.199Z,68.62
2018-07-19T02:57:27.893Z,68.64
2018-07-19T02:59:56.499Z,68.80
2018-07-19T03:02:25.117Z,68.64
2018-07-19T03:04:53.767Z,68.76
2018-07-19T03:07:22.513Z,68.09
2018-07-19T03:09:51.174Z,68.15
2018-07-19T03:12:19.786Z,68.53
2018-07-19T03:14:48.485Z,68.65
2018-07-19T03:17:17.204Z,68.10
2018-07-19T03:19:45.931Z,67.80
2018-07-19T03:22:14.865Z,67.76
2018-07-19T03:24:43.511Z,67.79
2018-07-19T03:27:12.086Z,67.60
2018-07-19T03:29:40.707Z,67.31
2018-07-19T03:32:09.412Z,67.45
2018-07-19T03:34:38.096Z,67.17
2018-07-19T03:37:06.809Z,66.95
2018-07-19T03:39:35.504Z,66.58
2018-07-19T03:42:04.159Z,66.69
2018-07-19T03:44:32.804Z,67.06
2018-07-19T03:47:01.513Z,66.76
2018-07-19T03:49:30.182Z,66.49
2018-07-19T03:51:58.821Z,66.32
2018-07-19T03:54:27.475Z,65.94
2018-07-19T03:56:56.277Z,65.67
2018-07-19T03:59:24.961Z,66.05
2018-07-19T04:01:53.690Z,65.45
2018-07-19T04:04:22.315Z,65.74
2018-07-19T04:06:50.967Z,65.30
2018-07-19T04:09:19.831Z,65.54
2018-07-19T04:11:48.478Z,65.11
2018-07-19T04:14:17.126Z,65.29
2018-07-19T04:16:46.070Z,64.97
2018-07-19T04:19:14.621Z,64.55
2018-07-19T04:21:43.252Z,64.73
2018-07-19T04:24:12.007Z,64.45
2018-07-19T04:26:40.698Z,64.82
2018-07-19T04:29:09.363Z,64.83
2018-07-19T04:31:38.071Z,64.54
2018-07-19T04:34:07.014Z,64.75
2018-07-19T04:36:35.668Z,64.58
2018-07-19T04:39:05.901Z,64.03
2018-07-19T04:41:34.692Z,64.02
2018-07-19T04:44:03.418Z,63.77
2018-07-19T04:46:32.039Z,63.80
2018-07-19T04:49:00.634Z,63.50
2018-07-19T04:51:29.329Z,63.65
2018-07-19T04:53:57.959Z,63.32
2018-07-19T04:56:26.709Z,63.18
2018-07-19T04:58:58.805Z,62.84
2018-07-19T05:01:27.612Z,61.49
2018-07-19T05:03:56.229Z,61.22
2018-07-19T05:06:24.849Z,60.77
2018-07-19T05:08:53.546Z,61.18
2018-07-19T05:11:22.257Z,61.58
2018-07-19T05:13:50.905Z,61.45
2018-07-19T05:16:19.726Z,61.88
2018-07-19T05:21:16.021Z,61.03
2018-07-19T05:23:44.680Z,60.05
2018-07-19T05:26:13.343Z,59.16
2018-07-19T05:28:42.229Z,58.55
2018-07-19T05:31:10.869Z,58.98
2018-07-19T05:33:39.544Z,57.54
2018-07-19T05:36:08.573Z,57.58
2018-07-19T05:38:37.252Z,56.92
2018-07-19T05:41:06.025Z,57.88
2018-07-19T05:43:34.713Z,56.41
2018-07-19T05:47:06.181Z,57.12
2018-07-19T05:49:34.937Z,55.92
2018-07-19T05:52:03.542Z,55.21
2018-07-19T05:54:32.172Z,55.78
2018-07-19T05:57:00.856Z,55.35
2018-07-19T05:59:29.629Z,55.15
2018-07-19T06:01:58.229Z,54.95
2018-07-19T06:04:26.922Z,54.68
2018-07-19T06:06:55.583Z,52.93
2018-07-19T06:09:24.299Z,53.76
2018-07-19T06:11:52.978Z,54.14
2018-07-19T06:14:21.706Z,53.17
2018-07-19T06:16:50.350Z,52.58
2018-07-19T06:19:19.376Z,53.22
2018-07-19T06:21:48.090Z,52.33
2018-07-19T06:24:16.867Z,51.72
2018-07-19T06:26:45.505Z,52.11
2018-07-19T06:29:14.140Z,51.54
2018-07-19T06:31:42.872Z,51.76
2018-07-19T06:34:11.517Z,50.57
2018-07-19T06:36:40.169Z,49.88
2018-07-19T06:39:09.545Z,49.15
2018-07-19T06:41:38.171Z,49.24
2018-07-19T06:44:06.998Z,49.44
2018-07-19T06:46:35.719Z,48.05
2018-07-19T06:49:04.424Z,47.97
2018-07-19T06:51:33.039Z,47.99
2018-07-19T06:54:01.760Z,48.02
2018-07-19T06:56:30.451Z,47.54
2018-07-19T06:58:59.140Z,47.14
2018-07-19T07:01:28.016Z,46.48
2018-07-19T07:03:56.726Z,47.08
2018-07-19T07:06:25.379Z,46.64
2018-07-19T07:08:54.005Z,44.63
2018-07-19T07:11:22.735Z,45.31
2018-07-19T07:13:51.403Z,44.33
2018-07-19T07:16:20.050Z,44.76
2018-07-19T07:18:48.658Z,42.71
2018-07-19T07:21:17.386Z,43.03
2018-07-19T07:23:46.092Z,43.85
2018-07-19T07:26:14.850Z,42.23
2018-07-19T07:28:43.866Z,41.88
2018-07-19T07:31:12.639Z,42.32
2018-07-19T07:33:41.340Z,40.31
2018-07-19T07:36:10.102Z,41.55
2018-07-19T07:38:39.005Z,41.36
2018-07-19T07:41:07.644Z,40.94
2018-07-19T07:43:36.256Z,40.72
2018-07-19T07:46:05.030Z,40.59
2018-07-19T07:48:33.681Z,39.80
2018-07-19T07:51:02.357Z,38.59
2018-07-19T07:53:30.926Z,39.64
2018-07-19T07:55:59.636Z,38.15
2018-07-19T07:58:28.343Z,38.53
2018-07-19T08:00:57.025Z,39.10
2018-07-19T08:03:25.897Z,37.01
2018-07-19T08:05:54.531Z,37.62
2018-07-19T08:08:23.476Z,36.05
2018-07-19T08:10:52.386Z,35.92
2018-07-19T08:13:21.035Z,35.20
2018-07-19T08:15:49.862Z,35.87
2018-07-19T08:18:18.957Z,35.06
2018-07-19T08:20:47.586Z,34.94
2018-07-19T08:23:16.462Z,33.62
2018-07-19T08:25:45.104Z,33.86
2018-07-19T08:28:13.997Z,33.23
2018-07-19T08:30:42.648Z,33.26
2018-07-19T08:33:11.340Z,31.09
2018-07-19T08:35:40.039Z,30.28
2018-07-19T08:38:09.173Z,31.39
2018-07-19T08:40:37.964Z,29.26
2018-07-19T08:43:06.587Z,29.34
2018-07-19T08:45:35.250Z,29.60
2018-07-19T08:48:03.961Z,29.30
2018-07-19T08:50:32.565Z,28.71
2018-07-19T08:53:01.264Z,25.88
2018-07-19T08:55:30.036Z,26.62
2018-07-19T08:57:58.801Z,26.94
2018-07-19T09:00:27.451Z,27.43
2018-07-19T09:02:56.113Z,27.50
2018-07-19T09:05:24.830Z,26.70
2018-07-19T09:07:53.481Z,27.27
2018-07-19T09:10:22.103Z,28.43
2018-07-19T09:12:50.837Z,25.65
2018-07-19T09:15:19.546Z,27.57
2018-07-19T09:17:48.335Z,29.47
2018-07-19T09:20:17.456Z,27.64
2018-07-19T09:22:46.170Z,28.44
2018-07-19T09:25:14.767Z,26.47
2018-07-19T09:27:43.758Z,26.58
2018-07-19T09:30:12.467Z,27.16
2018-07-19T09:32:41.509Z,27.41
2018-07-19T09:35:10.720Z,26.98
2018-07-19T09:37:39.636Z,27.37
2018-07-19T09:40:08.455Z,27.93
2018-07-19T09:42:37.337Z,27.57
2018-07-19T09:45:06.158Z,26.47
2018-07-19T09:47:34.998Z,26.88
2018-07-19T09:50:03.872Z,28.19
2018-07-19T09:52:32.624Z,27.50
2018-07-19T09:55:02.548Z,26.68
2018-07-19T09:57:32.145Z,27.68
2018-07-19T10:00:00.956Z,27.33
2018-07-19T10:02:29.816Z,27.18
2018-07-19T10:04:58.961Z,28.12
2018-07-19T10:07:28.047Z,27.26
2018-07-19T10:09:56.794Z,25.53
2018-07-19T10:12:25.652Z,26.05
2018-07-19T10:14:54.442Z,25.33
2018-07-19T10:17:23.449Z,25.89
2018-07-19T10:19:52.197Z,26.26
2018-07-19T10:22:21.295Z,27.19
2018-07-19T10:24:50.074Z,27.20
2018-07-19T10:27:18.907Z,27.65
2018-07-19T10:29:47.667Z,26.99
2018-07-19T10:32:16.637Z,26.79
2018-07-19T10:34:45.338Z,26.65
2018-07-19T10:37:14.197Z,27.21
2018-07-19T10:39:43.000Z,26.42
2018-07-19T10:42:12.051Z,27.33
2018-07-19T10:44:40.915Z,26.96
2018-07-19T10:47:09.946Z,28.19
2018-07-19T10:49:40.806Z,28.20
2018-07-19T10:52:09.908Z,27.33
2018-07-19T10:54:38.624Z,27.34
2018-07-19T10:57:07.618Z,27.75
2018-07-19T10:59:36.561Z,28.58
2018-07-19T11:02:05.280Z,29.23
2018-07-19T11:04:34.252Z,28.61
2018-07-19T11:07:03.134Z,28.25
2018-07-19T11:09:32.278Z,28.05
2018-07-19T11:12:01.346Z,28.69
2018-07-19T11:14:30.230Z,29.58
2018-07-19T11:16:59.207Z,30.19
2018-07-19T11:19:27.989Z,30.72
2018-07-19T11:21:57.155Z,31.34
2018-07-19T11:24:25.992Z,30.95
2018-07-19T11:26:54.839Z,31.14
2018-07-19T11:29:23.887Z,31.31
2018-07-19T11:31:52.744Z,31.47
2018-07-19T11:34:21.883Z,32.16
2018-07-19T11:36:50.741Z,31.49
2018-07-19T11:39:19.577Z,32.15
2018-07-19T11:41:48.825Z,32.33
2018-07-19T11:44:17.639Z,32.34
2018-07-19T11:46:46.720Z,32.98
2018-07-19T11:49:15.505Z,33.17
2018-07-19T11:51:44.202Z,32.13
2018-07-19T11:54:13.003Z,32.47
2018-07-19T11:56:41.611Z,32.10
2018-07-19T11:59:13.401Z,32.17
2018-07-19T12:01:42.185Z,33.11
2018-07-19T12:04:10.935Z,33.73
2018-07-19T12:06:39.884Z,33.91
2018-07-19T12:09:10.307Z,33.87
2018-07-19T12:11:39.173Z,35.38
2018-07-19T12:14:08.119Z,34.96
2018-07-19T12:16:36.887Z,34.92
2018-07-19T12:19:05.800Z,36.13
2018-07-19T12:21:34.546Z,34.81
2018-07-19T12:24:03.491Z,35.20
2018-07-19T12:26:32.482Z,34.13
2018-07-19T12:29:01.264Z,34.61
2018-07-19T12:31:30.010Z,34.96
2018-07-19T12:33:58.716Z,34.15
2018-07-19T12:36:27.559Z,32.77
2018-07-19T12:38:56.423Z,33.77
2018-07-19T12:41:25.405Z,32.66
2018-07-19T12:43:54.208Z,31.10
2018-07-19T12:46:23.263Z,31.50
2018-07-19T12:48:52.242Z,32.48
2018-07-19T12:51:21.351Z,32.50
2018-07-19T12:53:50.075Z,31.83
2018-07-19T12:56:18.820Z,32.69
2018-07-19T12:58:47.663Z,33.53
2018-07-19T13:01:16.451Z,32.83
2018-07-19T13:03:45.313Z,33.54
2018-07-19T13:06:14.096Z,34.28
2018-07-19T13:08:42.888Z,34.30
2018-07-19T13:11:11.776Z,34.14
2018-07-19T13:13:41.423Z,33.99
2018-07-19T13:16:10.618Z,34.03
2018-07-19T13:18:39.448Z,34.34
2018-07-19T13:21:08.268Z,33.94
2018-07-19T13:23:37.307Z,34.37
2018-07-19T13:26:06.131Z,34.84
2018-07-19T13:28:34.833Z,34.41
2018-07-19T13:31:03.608Z,34.38
2018-07-19T13:33:32.606Z,33.62
2018-07-19T13:36:06.341Z,33.15
2018-07-19T13:38:35.233Z,32.15
2018-07-19T13:41:04.385Z,31.43
2018-07-19T13:43:33.269Z,30.28
2018-07-19T13:46:02.060Z,29.76
2018-07-19T13:48:31.149Z,30.44
2018-07-19T13:51:00.015Z,30.16
2018-07-19T13:53:40.910Z,29.88
2018-07-19T13:56:10.308Z,29.95
2018-07-19T13:58:39.682Z,30.43
2018-07-19T14:01:08.676Z,31.33
2018-07-19T14:03:37.762Z,32.07
2018-07-19T14:06:06.629Z,32.33
2018-07-19T14:08:35.539Z,32.02
2018-07-19T14:11:04.446Z,32.15
2018-07-19T14:13:33.463Z,31.98
2018-07-19T14:16:02.493Z,32.56
2018-07-19T14:18:31.251Z,32.56
2018-07-19T14:21:00.118Z,32.44
2018-07-19T14:23:28.983Z,33.07
2018-07-19T14:25:57.709Z,33.11
2018-07-19T14:28:26.613Z,32.16
2018-07-19T14:30:55.604Z,31.61
2018-07-19T14:33:24.371Z,30.57
2018-07-19T14:35:53.330Z,30.67
2018-07-19T14:38:22.707Z,29.99
2018-07-19T14:40:51.489Z,30.79
2018-07-19T14:43:20.372Z,30.10
2018-07-19T14:45:49.209Z,29.28
2018-07-19T14:48:18.017Z,28.27
2018-07-19T14:50:46.907Z,27.22
2018-07-19T14:53:15.779Z,28.21
2018-07-19T14:55:44.555Z,28.11
2018-07-19T14:58:13.506Z,28.05
2018-07-19T15:00:42.352Z,26.62
2018-07-19T15:03:11.637Z,26.37
2018-07-19T15:05:40.472Z,25.33
2018-07-19T15:08:09.352Z,24.16
2018-07-19T15:10:38.196Z,23.43
2018-07-19T15:13:07.175Z,23.33
2018-07-19T15:15:36.267Z,22.08
2018-07-19T15:18:05.259Z,22.58
2018-07-19T15:20:34.090Z,22.20
2018-07-19T15:23:03.028Z,23.48
2018-07-19T15:25:32.104Z,24.92
2018-07-19T15:28:00.956Z,25.07
2018-07-19T15:30:29.813Z,26.63
2018-07-19T15:32:58.853Z,27.30
2018-07-19T15:35:27.562Z,27.20
2018-07-19T15:37:56.320Z,28.62
2018-07-19T15:40:25.435Z,30.10
2018-07-19T15:42:54.371Z,30.83
2018-07-19T15:45:23.258Z,31.53
2018-07-19T15:47:52.103Z,30.11
2018-07-19T15:50:20.851Z,30.65
2018-07-19T15:52:49.704Z,31.28
2018-07-19T15:55:18.550Z,31.11
2018-07-19T15:57:47.365Z,31.03
2018-07-19T16:00:16.249Z,30.43
2018-07-19T16:02:45.047Z,30.64
2018-07-19T16:05:13.942Z,30.98
2018-07-19T16:07:42.726Z,31.78
2018-07-19T16:10:12.569Z,32.47
2018-07-19T16:12:41.359Z,33.44
2018-07-19T16:15:10.249Z,33.69
2018-07-19T16:17:39.034Z,33.69
2018-07-19T16:20:08.037Z,32.74
2018-07-19T16:22:37.083Z,33.10
2018-07-19T16:25:06.038Z,33.64
2018-07-19T16:27:35.016Z,34.07
2018-07-19T16:30:03.926Z,34.83
2018-07-19T16:32:32.771Z,34.50
2018-07-19T16:35:04.296Z,34.85
2018-07-19T16:37:33.376Z,34.70
2018-07-19T16:40:02.138Z,34.85
2018-07-19T16:42:30.967Z,35.13
2018-07-19T16:44:59.665Z,35.32
2018-07-19T16:47:28.653Z,35.81
2018-07-19T16:49:57.591Z,35.77
2018-07-19T16:52:26.718Z,36.58
2018-07-19T16:54:55.566Z,36.00
2018-07-19T16:57:24.753Z,36.83
2018-07-19T16:59:53.565Z,37.01
2018-07-19T17:02:22.702Z,35.69
2018-07-19T17:04:51.452Z,35.96
2018-07-19T17:07:20.051Z,36.43
2018-07-19T17:09:48.635Z,36.34
2018-07-19T17:12:17.746Z,36.66
2018-07-19T17:14:46.573Z,36.89
2018-07-19T17:17:15.313Z,37.55
2018-07-19T17:19:43.982Z,36.82
2018-07-19T17:22:13.080Z,36.13
2018-07-19T17:24:41.769Z,37.05
2018-07-19T17:27:10.566Z,36.93
2018-07-19T17:29:39.584Z,37.02
2018-07-19T17:32:08.343Z,36.50
2018-07-19T17:34:37.255Z,37.08
2018-07-19T17:37:06.360Z,38.10
2018-07-19T17:39:35.137Z,37.21
2018-07-19T17:42:03.755Z,37.85
2018-07-19T17:44:32.586Z,37.99
2018-07-19T17:47:01.290Z,39.01
2018-07-19T17:49:30.259Z,38.72
2018-07-19T17:51:58.819Z,39.13
2018-07-19T17:54:28.052Z,40.04
2018-07-19T17:56:56.810Z,41.03
2018-07-19T17:59:25.499Z,42.16
2018-07-19T18:01:54.142Z,45.14
2018-07-19T18:04:23.120Z,45.82
2018-07-19T18:06:52.167Z,44.86
2018-07-19T18:09:21.037Z,46.31
2018-07-19T18:11:49.963Z,46.77
2018-07-19T18:14:18.640Z,48.17
2018-07-19T18:16:47.379Z,49.21
2018-07-19T18:19:16.081Z,51.49
2018-07-19T18:21:44.808Z,50.38
2018-07-19T18:24:13.421Z,53.03
2018-07-19T18:26:42.109Z,53.21
2018-07-19T18:29:10.732Z,51.74
2018-07-19T18:31:39.557Z,52.29
2018-07-19T18:34:08.213Z,52.32
2018-07-19T18:36:37.415Z,51.95
2018-07-19T18:39:08.908Z,51.96
2018-07-19T18:41:37.561Z,51.88
2018-07-19T18:44:06.431Z,51.61
2018-07-19T18:46:35.228Z,52.01
2018-07-19T18:49:04.017Z,52.54
2018-07-19T18:51:32.704Z,52.36
2018-07-19T18:54:01.428Z,52.58
2018-07-19T18:56:30.319Z,52.11
2018-07-19T18:58:58.984Z,52.60
2018-07-19T19:01:27.701Z,52.46
2018-07-19T19:03:56.486Z,53.23
2018-07-19T19:06:25.367Z,53.44
2018-07-19T19:08:54.135Z,53.39
2018-07-19T19:11:22.837Z,53.58
2018-07-19T19:13:51.504Z,53.84
2018-07-19T19:16:20.174Z,54.31
2018-07-19T19:18:48.817Z,54.57
2018-07-19T19:21:17.570Z,54.34
2018-07-19T19:23:53.457Z,54.74
2018-07-19T19:26:22.185Z,55.49
2018-07-19T19:28:50.698Z,55.21
2018-07-19T19:31:19.763Z,55.27
2018-07-19T19:33:48.591Z,55.59
2018-07-19T19:36:17.207Z,55.82
2018-07-19T19:38:46.116Z,56.05
2018-07-19T19:41:15.249Z,56.26
2018-07-19T19:43:44.439Z,56.99
2018-07-19T19:46:13.268Z,57.36
2018-07-19T19:48:42.149Z,57.47
2018-07-19T19:51:11.247Z,57.52
2018-07-19T19:53:40.019Z,58.08
2018-07-19T19:56:09.444Z,58.43
2018-07-19T19:58:38.412Z,58.83
2018-07-19T20:01:07.060Z,58.66
2018-07-19T20:03:36.034Z,58.84
2018-07-19T20:06:05.105Z,60.62
2018-07-19T20:08:33.796Z,60.16
2018-07-19T20:11:02.423Z,61.77
2018-07-19T20:13:31.240Z,59.98
2018-07-19T20:15:59.885Z,60.22
2018-07-19T20:18:28.962Z,60.35
2018-07-19T20:20:57.544Z,60.99
2018-07-19T20:23:26.673Z,61.54
2018-07-19T20:25:55.370Z,61.45
2018-07-19T20:28:24.365Z,61.70
2018-07-19T20:30:52.982Z,62.27
2018-07-19T20:33:21.945Z,62.62
2018-07-19T20:35:50.689Z,62.63
2018-07-19T20:38:19.351Z,62.46
2018-07-19T20:40:48.395Z,62.30
2018-07-19T20:43:17.029Z,62.33
2018-07-19T20:45:46.309Z,62.95
2018-07-19T20:48:15.485Z,62.95
2018-07-19T20:50:44.156Z,63.31
2018-07-19T20:53:12.772Z,62.87
2018-07-19T20:55:42.293Z,63.41
2018-07-19T20:58:11.004Z,63.43
2018-07-19T21:00:40.760Z,63.38
2018-07-19T21:03:09.419Z,63.32
2018-07-19T21:05:38.192Z,63.62
2018-07-19T21:08:06.973Z,64.07
2018-07-19T21:10:35.916Z,64.89
2018-07-19T21:13:04.617Z,64.28
2018-07-19T21:15:33.289Z,64.70
2018-07-19T21:18:01.913Z,65.06
2018-07-19T21:20:30.973Z,65.45
2018-07-19T21:22:59.638Z,65.50
2018-07-19T21:25:28.284Z,65.55
2018-07-19T21:27:56.933Z,66.17
2018-07-19T21:30:25.501Z,65.61
2018-07-19T21:32:54.097Z,65.71
2018-07-19T21:35:22.733Z,66.42
2018-07-19T21:37:51.461Z,65.80
2018-07-19T21:40:20.156Z,65.83
2018-07-19T21:42:48.945Z,66.47
2018-07-19T21:45:18.194Z,66.40
2018-07-19T21:47:47.327Z,66.12
2018-07-19T21:50:16.171Z,66.59
2018-07-19T21:52:44.793Z,67.04
2018-07-19T21:55:13.541Z,67.25
2018-07-19T21:57:42.409Z,66.94
2018-07-19T22:00:11.197Z,66.90
2018-07-19T22:02:39.973Z,66.95
2018-07-19T22:05:09.401Z,66.70
2018-07-19T22:07:38.111Z,68.35
2018-07-19T22:10:06.874Z,67.23
2018-07-19T22:12:35.457Z,67.25
2018-07-19T22:15:04.501Z,67.54
2018-07-19T22:17:33.301Z,68.59
2018-07-19T22:20:01.915Z,67.85
2018-07-19T22:22:30.801Z,68.13
2018-07-19T22:24:59.395Z,68.20
2018-07-19T22:27:28.060Z,67.76
2018-07-19T22:29:56.680Z,68.65
2018-07-19T22:32:25.249Z,69.27
2018-07-19T22:34:53.930Z,67.91
2018-07-19T22:37:22.567Z,67.56
2018-07-19T22:39:51.248Z,67.47
2018-07-19T22:42:19.874Z,68.11
2018-07-19T22:44:48.625Z,67.69
2018-07-19T22:47:17.247Z,67.28
2018-07-19T22:49:45.940Z,67.44
2018-07-19T22:52:14.565Z,68.12
2018-07-19T22:54:43.184Z,67.86
2018-07-19T22:57:11.828Z,68.15
2018-07-19T22:59:40.521Z,67.86
2018-07-19T23:02:09.205Z,68.27
2018-07-19T23:04:37.902Z,67.96
2018-07-19T23:07:06.522Z,68.05
2018-07-19T23:09:35.070Z,68.01
2018-07-19T23:12:03.762Z,68.37
2018-07-19T23:14:32.863Z,67.80
2018-07-19T23:17:01.508Z,68.00
2018-07-19T23:19:30.107Z,69.09
2018-07-19T23:21:58.721Z,67.97
2018-07-19T23:24:27.341Z,68.73
2018-07-19T23:26:56.113Z,68.20
2018-07-19T23:29:24.761Z,68.09
2018-07-19T23:31:53.522Z,68.26
2018-07-19T23:34:22.185Z,67.96
2018-07-19T23:36:56.147Z,68.00
2018-07-19T23:39:33.917Z,68.36
2018-07-19T23:42:09.142Z,68.78
2018-07-19T23:44:42.879Z,69.21
2018-07-19T23:47:15.055Z,69.28
2018-07-19T23:49:43.653Z,69.47
2018-07-19T23:52:12.302Z,69.63
2018-07-19T23:54:40.938Z,69.83
2018-07-19T23:57:09.584Z,69.92
2018-07-19T23:59:38.401Z,70.28
